sensor_id;sensor_type;location;lat;lon;timestamp;P1;durP1;ratioP1;P2;durP2;ratioP2
23119;SDS011;11729;50.836;4.330;2024-01-30T00:01:55;12.02;;;8.10;;
23119;SDS011;11729;50.836;4.330;2024-01-30T00:04:21;8.88;;;8.00;;
23119;SDS011;11729;50.836;4.330;2024-01-30T00:06:46;9.75;;;8.68;;
23119;SDS011;11729;50.836;4.330;2024-01-30T00:09:12;11.18;;;8.80;;
23119;SDS011;11729;50.836;4.330;2024-01-30T00:11:39;11.43;;;8.85;;
23119;SDS011;11729;50.836;4.330;2024-01-30T00:14:04;10.57;;;8.75;;
23119;SDS011;11729;50.836;4.330;2024-01-30T00:16:30;9.82;;;8.43;;
23119;SDS011;11729;50.836;4.330;2024-01-30T00:18:56;10.48;;;8.70;;
23119;SDS011;11729;50.836;4.330;2024-01-30T00:21:22;9.70;;;8.73;;
23119;SDS011;11729;50.836;4.330;2024-01-30T00:23:48;10.55;;;8.98;;
23119;SDS011;11729;50.836;4.330;2024-01-30T00:26:14;11.93;;;8.70;;
23119;SDS011;11729;50.836;4.330;2024-01-30T00:31:08;11.32;;;8.65;;
23119;SDS011;11729;50.836;4.330;2024-01-30T00:33:40;10.95;;;8.52;;
23119;SDS011;11729;50.836;4.330;2024-01-30T00:36:06;9.95;;;8.80;;
23119;SDS011;11729;50.836;4.330;2024-01-30T00:38:33;10.23;;;9.02;;
23119;SDS011;11729;50.836;4.330;2024-01-30T00:40:58;11.05;;;8.63;;
23119;SDS011;11729;50.836;4.330;2024-01-30T00:43:24;10.07;;;8.68;;
23119;SDS011;11729;50.836;4.330;2024-01-30T00:45:52;10.43;;;8.80;;
23119;SDS011;11729;50.836;4.330;2024-01-30T00:50:44;13.07;;;8.95;;
23119;SDS011;11729;50.836;4.330;2024-01-30T00:53:10;10.68;;;8.57;;
23119;SDS011;11729;50.836;4.330;2024-01-30T00:55:36;11.45;;;8.50;;
23119;SDS011;11729;50.836;4.330;2024-01-30T00:58:01;10.68;;;9.48;;
23119;SDS011;11729;50.836;4.330;2024-01-30T01:00:28;11.18;;;8.48;;
23119;SDS011;11729;50.836;4.330;2024-01-30T01:02:57;10.48;;;8.65;;
23119;SDS011;11729;50.836;4.330;2024-01-30T01:05:23;10.73;;;8.57;;
23119;SDS011;11729;50.836;4.330;2024-01-30T01:07:49;12.10;;;8.82;;
23119;SDS011;11729;50.836;4.330;2024-01-30T01:10:14;9.30;;;8.40;;
23119;SDS011;11729;50.836;4.330;2024-01-30T01:12:43;11.17;;;9.00;;
23119;SDS011;11729;50.836;4.330;2024-01-30T01:15:09;9.60;;;8.48;;
23119;SDS011;11729;50.836;4.330;2024-01-30T01:17:35;12.82;;;8.50;;
23119;SDS011;11729;50.836;4.330;2024-01-30T01:20:05;11.13;;;8.50;;
23119;SDS011;11729;50.836;4.330;2024-01-30T01:22:32;11.50;;;8.80;;
23119;SDS011;11729;50.836;4.330;2024-01-30T01:24:59;8.70;;;7.82;;
23119;SDS011;11729;50.836;4.330;2024-01-30T01:27:25;8.85;;;7.95;;
23119;SDS011;11729;50.836;4.330;2024-01-30T01:29:52;9.55;;;7.97;;
23119;SDS011;11729;50.836;4.330;2024-01-30T01:32:18;9.10;;;8.17;;
23119;SDS011;11729;50.836;4.330;2024-01-30T01:34:45;9.38;;;8.38;;
23119;SDS011;11729;50.836;4.330;2024-01-30T01:37:11;11.50;;;7.97;;
23119;SDS011;11729;50.836;4.330;2024-01-30T01:39:37;9.93;;;8.48;;
23119;SDS011;11729;50.836;4.330;2024-01-30T01:42:02;8.75;;;7.82;;
23119;SDS011;11729;50.836;4.330;2024-01-30T01:44:28;9.75;;;8.25;;
23119;SDS011;11729;50.836;4.330;2024-01-30T01:46:54;10.32;;;8.05;;
23119;SDS011;11729;50.836;4.330;2024-01-30T01:49:22;11.82;;;8.32;;
23119;SDS011;11729;50.836;4.330;2024-01-30T01:51:50;11.95;;;8.40;;
23119;SDS011;11729;50.836;4.330;2024-01-30T01:54:16;9.80;;;7.90;;
23119;SDS011;11729;50.836;4.330;2024-01-30T01:56:43;11.98;;;8.50;;
23119;SDS011;11729;50.836;4.330;2024-01-30T01:59:09;10.57;;;8.02;;
23119;SDS011;11729;50.836;4.330;2024-01-30T02:01:36;10.88;;;8.27;;
23119;SDS011;11729;50.836;4.330;2024-01-30T02:04:02;8.95;;;7.70;;
23119;SDS011;11729;50.836;4.330;2024-01-30T02:06:28;11.15;;;8.65;;
23119;SDS011;11729;50.836;4.330;2024-01-30T02:08:54;12.00;;;8.35;;
23119;SDS011;11729;50.836;4.330;2024-01-30T02:11:20;10.38;;;7.88;;
23119;SDS011;11729;50.836;4.330;2024-01-30T02:13:47;8.98;;;8.07;;
23119;SDS011;11729;50.836;4.330;2024-01-30T02:16:14;11.45;;;7.95;;
23119;SDS011;11729;50.836;4.330;2024-01-30T02:18:39;10.38;;;8.13;;
23119;SDS011;11729;50.836;4.330;2024-01-30T02:21:11;8.55;;;7.47;;
23119;SDS011;11729;50.836;4.330;2024-01-30T02:23:38;10.70;;;8.50;;
23119;SDS011;11729;50.836;4.330;2024-01-30T02:26:06;10.73;;;8.65;;
23119;SDS011;11729;50.836;4.330;2024-01-30T02:28:31;11.80;;;8.25;;
23119;SDS011;11729;50.836;4.330;2024-01-30T02:30:59;13.85;;;8.27;;
23119;SDS011;11729;50.836;4.330;2024-01-30T02:33:25;9.68;;;8.18;;
23119;SDS011;11729;50.836;4.330;2024-01-30T02:35:52;9.93;;;8.93;;
23119;SDS011;11729;50.836;4.330;2024-01-30T02:38:19;10.98;;;8.45;;
23119;SDS011;11729;50.836;4.330;2024-01-30T02:40:46;11.27;;;8.10;;
23119;SDS011;11729;50.836;4.330;2024-01-30T02:43:11;9.57;;;8.02;;
23119;SDS011;11729;50.836;4.330;2024-01-30T02:45:38;8.98;;;7.82;;
23119;SDS011;11729;50.836;4.330;2024-01-30T02:48:05;12.43;;;8.23;;
23119;SDS011;11729;50.836;4.330;2024-01-30T02:50:31;10.17;;;8.50;;
23119;SDS011;11729;50.836;4.330;2024-01-30T02:52:57;10.95;;;8.18;;
23119;SDS011;11729;50.836;4.330;2024-01-30T02:55:22;14.10;;;8.50;;
23119;SDS011;11729;50.836;4.330;2024-01-30T02:57:48;11.20;;;8.32;;
23119;SDS011;11729;50.836;4.330;2024-01-30T03:00:13;8.95;;;8.05;;
23119;SDS011;11729;50.836;4.330;2024-01-30T03:02:40;10.32;;;8.13;;
23119;SDS011;11729;50.836;4.330;2024-01-30T03:05:07;11.07;;;8.20;;
23119;SDS011;11729;50.836;4.330;2024-01-30T03:07:34;10.15;;;8.48;;
23119;SDS011;11729;50.836;4.330;2024-01-30T03:10:00;11.70;;;7.95;;
23119;SDS011;11729;50.836;4.330;2024-01-30T03:12:25;11.25;;;8.90;;
23119;SDS011;11729;50.836;4.330;2024-01-30T03:14:51;10.05;;;8.18;;
23119;SDS011;11729;50.836;4.330;2024-01-30T03:17:17;10.23;;;9.07;;
23119;SDS011;11729;50.836;4.330;2024-01-30T03:19:44;13.50;;;8.85;;
23119;SDS011;11729;50.836;4.330;2024-01-30T03:22:11;10.38;;;8.45;;
23119;SDS011;11729;50.836;4.330;2024-01-30T03:24:37;11.98;;;8.07;;
23119;SDS011;11729;50.836;4.330;2024-01-30T03:27:03;12.27;;;9.02;;
23119;SDS011;11729;50.836;4.330;2024-01-30T03:29:28;14.52;;;8.95;;
23119;SDS011;11729;50.836;4.330;2024-01-30T03:31:54;10.88;;;8.68;;
23119;SDS011;11729;50.836;4.330;2024-01-30T03:34:20;15.07;;;8.77;;
23119;SDS011;11729;50.836;4.330;2024-01-30T03:36:45;10.95;;;8.35;;
23119;SDS011;11729;50.836;4.330;2024-01-30T03:39:12;13.95;;;8.27;;
23119;SDS011;11729;50.836;4.330;2024-01-30T03:41:37;14.77;;;8.80;;
23119;SDS011;11729;50.836;4.330;2024-01-30T03:44:03;12.43;;;8.93;;
23119;SDS011;11729;50.836;4.330;2024-01-30T03:46:29;10.98;;;8.88;;
23119;SDS011;11729;50.836;4.330;2024-01-30T03:48:54;10.50;;;8.68;;
23119;SDS011;11729;50.836;4.330;2024-01-30T03:51:20;13.20;;;8.60;;
23119;SDS011;11729;50.836;4.330;2024-01-30T03:53:45;11.05;;;8.50;;
23119;SDS011;11729;50.836;4.330;2024-01-30T03:56:11;11.65;;;8.55;;
23119;SDS011;11729;50.836;4.330;2024-01-30T03:58:38;11.50;;;8.82;;
23119;SDS011;11729;50.836;4.330;2024-01-30T04:01:04;10.93;;;8.70;;
23119;SDS011;11729;50.836;4.330;2024-01-30T04:03:30;10.27;;;8.63;;
23119;SDS011;11729;50.836;4.330;2024-01-30T04:05:56;10.20;;;8.55;;
23119;SDS011;11729;50.836;4.330;2024-01-30T04:08:22;14.70;;;8.65;;
23119;SDS011;11729;50.836;4.330;2024-01-30T04:10:47;10.77;;;9.00;;
23119;SDS011;11729;50.836;4.330;2024-01-30T04:13:13;12.63;;;8.52;;
23119;SDS011;11729;50.836;4.330;2024-01-30T04:15:39;10.93;;;8.52;;
23119;SDS011;11729;50.836;4.330;2024-01-30T04:18:05;14.18;;;9.63;;
23119;SDS011;11729;50.836;4.330;2024-01-30T04:20:30;14.20;;;10.45;;
23119;SDS011;11729;50.836;4.330;2024-01-30T04:22:56;11.98;;;9.73;;
23119;SDS011;11729;50.836;4.330;2024-01-30T04:25:22;12.93;;;9.50;;
23119;SDS011;11729;50.836;4.330;2024-01-30T04:27:48;13.43;;;8.98;;
23119;SDS011;11729;50.836;4.330;2024-01-30T04:30:14;11.45;;;9.30;;
23119;SDS011;11729;50.836;4.330;2024-01-30T04:32:40;10.23;;;8.93;;
23119;SDS011;11729;50.836;4.330;2024-01-30T04:35:06;14.63;;;9.95;;
23119;SDS011;11729;50.836;4.330;2024-01-30T04:37:32;14.63;;;9.32;;
23119;SDS011;11729;50.836;4.330;2024-01-30T04:39:57;13.43;;;9.10;;
23119;SDS011;11729;50.836;4.330;2024-01-30T04:42:23;13.48;;;9.00;;
23119;SDS011;11729;50.836;4.330;2024-01-30T04:44:49;11.90;;;8.90;;
23119;SDS011;11729;50.836;4.330;2024-01-30T04:47:15;10.55;;;9.50;;
23119;SDS011;11729;50.836;4.330;2024-01-30T04:49:41;14.23;;;9.30;;
23119;SDS011;11729;50.836;4.330;2024-01-30T04:52:07;10.50;;;8.75;;
23119;SDS011;11729;50.836;4.330;2024-01-30T04:54:34;12.73;;;9.05;;
23119;SDS011;11729;50.836;4.330;2024-01-30T04:57:00;10.60;;;9.50;;
23119;SDS011;11729;50.836;4.330;2024-01-30T04:59:30;11.63;;;9.18;;
23119;SDS011;11729;50.836;4.330;2024-01-30T05:01:56;10.95;;;9.10;;
23119;SDS011;11729;50.836;4.330;2024-01-30T05:04:21;10.82;;;9.20;;
23119;SDS011;11729;50.836;4.330;2024-01-30T05:06:48;11.93;;;9.30;;
23119;SDS011;11729;50.836;4.330;2024-01-30T05:09:14;11.55;;;9.55;;
23119;SDS011;11729;50.836;4.330;2024-01-30T05:11:40;11.40;;;9.10;;
23119;SDS011;11729;50.836;4.330;2024-01-30T05:14:07;16.63;;;9.77;;
23119;SDS011;11729;50.836;4.330;2024-01-30T05:16:33;12.38;;;9.27;;
23119;SDS011;11729;50.836;4.330;2024-01-30T05:18:59;13.50;;;9.13;;
23119;SDS011;11729;50.836;4.330;2024-01-30T05:21:25;11.35;;;10.15;;
23119;SDS011;11729;50.836;4.330;2024-01-30T05:23:51;11.80;;;10.05;;
23119;SDS011;11729;50.836;4.330;2024-01-30T05:26:16;12.55;;;10.07;;
23119;SDS011;11729;50.836;4.330;2024-01-30T05:28:42;16.42;;;9.65;;
23119;SDS011;11729;50.836;4.330;2024-01-30T05:33:37;11.93;;;9.05;;
23119;SDS011;11729;50.836;4.330;2024-01-30T05:36:03;11.00;;;9.02;;
23119;SDS011;11729;50.836;4.330;2024-01-30T05:38:29;12.70;;;9.63;;
23119;SDS011;11729;50.836;4.330;2024-01-30T05:40:55;12.20;;;10.02;;
23119;SDS011;11729;50.836;4.330;2024-01-30T05:43:23;13.05;;;10.25;;
23119;SDS011;11729;50.836;4.330;2024-01-30T05:45:48;12.88;;;10.07;;
23119;SDS011;11729;50.836;4.330;2024-01-30T05:48:14;10.25;;;9.13;;
23119;SDS011;11729;50.836;4.330;2024-01-30T05:50:39;14.23;;;9.73;;
23119;SDS011;11729;50.836;4.330;2024-01-30T05:53:05;12.73;;;9.70;;
23119;SDS011;11729;50.836;4.330;2024-01-30T05:55:31;12.10;;;9.65;;
23119;SDS011;11729;50.836;4.330;2024-01-30T05:57:56;14.07;;;9.68;;
23119;SDS011;11729;50.836;4.330;2024-01-30T06:00:22;13.07;;;9.63;;
23119;SDS011;11729;50.836;4.330;2024-01-30T06:02:48;12.30;;;9.60;;
23119;SDS011;11729;50.836;4.330;2024-01-30T06:05:13;12.52;;;9.50;;
23119;SDS011;11729;50.836;4.330;2024-01-30T06:07:39;17.10;;;9.70;;
23119;SDS011;11729;50.836;4.330;2024-01-30T06:10:06;11.55;;;9.32;;
23119;SDS011;11729;50.836;4.330;2024-01-30T06:12:32;12.30;;;9.55;;
23119;SDS011;11729;50.836;4.330;2024-01-30T06:14:58;12.90;;;10.43;;
23119;SDS011;11729;50.836;4.330;2024-01-30T06:17:24;11.75;;;9.25;;
23119;SDS011;11729;50.836;4.330;2024-01-30T06:19:50;12.73;;;9.10;;
23119;SDS011;11729;50.836;4.330;2024-01-30T06:22:16;12.52;;;9.23;;
23119;SDS011;11729;50.836;4.330;2024-01-30T06:24:43;11.40;;;9.57;;
23119;SDS011;11729;50.836;4.330;2024-01-30T06:27:10;12.30;;;9.15;;
23119;SDS011;11729;50.836;4.330;2024-01-30T06:29:35;10.95;;;9.30;;
23119;SDS011;11729;50.836;4.330;2024-01-30T06:32:03;10.82;;;9.73;;
23119;SDS011;11729;50.836;4.330;2024-01-30T06:34:29;11.65;;;9.77;;
23119;SDS011;11729;50.836;4.330;2024-01-30T06:36:54;12.48;;;9.85;;
23119;SDS011;11729;50.836;4.330;2024-01-30T06:39:20;11.13;;;9.88;;
23119;SDS011;11729;50.836;4.330;2024-01-30T06:41:45;11.02;;;9.57;;
23119;SDS011;11729;50.836;4.330;2024-01-30T06:44:11;10.65;;;9.65;;
23119;SDS011;11729;50.836;4.330;2024-01-30T06:46:38;10.82;;;9.70;;
23119;SDS011;11729;50.836;4.330;2024-01-30T06:49:03;13.10;;;9.60;;
23119;SDS011;11729;50.836;4.330;2024-01-30T06:51:29;16.67;;;9.98;;
23119;SDS011;11729;50.836;4.330;2024-01-30T06:53:54;14.20;;;10.18;;
23119;SDS011;11729;50.836;4.330;2024-01-30T06:56:20;11.50;;;9.48;;
23119;SDS011;11729;50.836;4.330;2024-01-30T06:58:49;11.50;;;9.85;;
23119;SDS011;11729;50.836;4.330;2024-01-30T07:01:15;11.30;;;9.70;;
23119;SDS011;11729;50.836;4.330;2024-01-30T07:03:42;11.43;;;9.32;;
23119;SDS011;11729;50.836;4.330;2024-01-30T07:06:08;14.23;;;10.40;;
23119;SDS011;11729;50.836;4.330;2024-01-30T07:08:35;13.20;;;10.23;;
23119;SDS011;11729;50.836;4.330;2024-01-30T07:11:03;12.63;;;9.90;;
23119;SDS011;11729;50.836;4.330;2024-01-30T07:13:30;12.90;;;10.07;;
23119;SDS011;11729;50.836;4.330;2024-01-30T07:15:55;15.32;;;10.10;;
23119;SDS011;11729;50.836;4.330;2024-01-30T07:18:21;10.85;;;9.35;;
23119;SDS011;11729;50.836;4.330;2024-01-30T07:20:46;16.25;;;10.07;;
23119;SDS011;11729;50.836;4.330;2024-01-30T07:23:13;16.45;;;9.82;;
23119;SDS011;11729;50.836;4.330;2024-01-30T07:28:06;13.88;;;9.68;;
23119;SDS011;11729;50.836;4.330;2024-01-30T07:30:34;26.42;;;15.60;;
23119;SDS011;11729;50.836;4.330;2024-01-30T07:33:00;15.20;;;10.10;;
23119;SDS011;11729;50.836;4.330;2024-01-30T07:35:26;14.07;;;9.82;;
23119;SDS011;11729;50.836;4.330;2024-01-30T07:37:52;15.85;;;10.38;;
23119;SDS011;11729;50.836;4.330;2024-01-30T07:40:17;16.60;;;10.15;;
23119;SDS011;11729;50.836;4.330;2024-01-30T07:42:43;16.27;;;9.80;;
23119;SDS011;11729;50.836;4.330;2024-01-30T07:45:09;14.95;;;10.13;;
23119;SDS011;11729;50.836;4.330;2024-01-30T07:47:34;19.10;;;10.60;;
23119;SDS011;11729;50.836;4.330;2024-01-30T07:50:00;14.45;;;9.82;;
23119;SDS011;11729;50.836;4.330;2024-01-30T07:52:26;17.92;;;10.65;;
23119;SDS011;11729;50.836;4.330;2024-01-30T07:54:51;16.00;;;10.32;;
23119;SDS011;11729;50.836;4.330;2024-01-30T07:57:17;18.52;;;10.13;;
23119;SDS011;11729;50.836;4.330;2024-01-30T07:59:44;15.68;;;10.15;;
23119;SDS011;11729;50.836;4.330;2024-01-30T08:02:10;12.85;;;10.23;;
23119;SDS011;11729;50.836;4.330;2024-01-30T08:04:38;14.85;;;10.73;;
23119;SDS011;11729;50.836;4.330;2024-01-30T08:07:04;16.60;;;10.63;;
23119;SDS011;11729;50.836;4.330;2024-01-30T08:09:30;22.25;;;11.23;;
23119;SDS011;11729;50.836;4.330;2024-01-30T08:11:55;20.65;;;11.43;;
23119;SDS011;11729;50.836;4.330;2024-01-30T08:14:21;20.52;;;11.13;;
23119;SDS011;11729;50.836;4.330;2024-01-30T08:16:47;22.58;;;11.20;;
23119;SDS011;11729;50.836;4.330;2024-01-30T08:19:13;16.88;;;11.15;;
23119;SDS011;11729;50.836;4.330;2024-01-30T08:21:40;22.23;;;11.02;;
23119;SDS011;11729;50.836;4.330;2024-01-30T08:24:06;18.83;;;11.63;;
23119;SDS011;11729;50.836;4.330;2024-01-30T08:26:34;23.30;;;11.30;;
23119;SDS011;11729;50.836;4.330;2024-01-30T08:29:03;16.83;;;10.75;;
23119;SDS011;11729;50.836;4.330;2024-01-30T08:31:30;18.17;;;11.43;;
23119;SDS011;11729;50.836;4.330;2024-01-30T08:33:56;17.00;;;10.70;;
23119;SDS011;11729;50.836;4.330;2024-01-30T08:36:22;15.82;;;9.90;;
23119;SDS011;11729;50.836;4.330;2024-01-30T08:38:48;17.70;;;10.93;;
23119;SDS011;11729;50.836;4.330;2024-01-30T08:41:13;16.15;;;11.15;;
23119;SDS011;11729;50.836;4.330;2024-01-30T08:43:40;25.98;;;12.05;;
23119;SDS011;11729;50.836;4.330;2024-01-30T08:46:06;23.17;;;12.60;;
23119;SDS011;11729;50.836;4.330;2024-01-30T08:48:32;18.90;;;11.07;;
23119;SDS011;11729;50.836;4.330;2024-01-30T08:50:57;17.17;;;11.32;;
23119;SDS011;11729;50.836;4.330;2024-01-30T08:53:23;16.15;;;11.18;;
23119;SDS011;11729;50.836;4.330;2024-01-30T08:55:50;14.82;;;10.10;;
23119;SDS011;11729;50.836;4.330;2024-01-30T08:58:16;20.20;;;10.75;;
23119;SDS011;11729;50.836;4.330;2024-01-30T09:00:44;16.80;;;10.77;;
23119;SDS011;11729;50.836;4.330;2024-01-30T09:03:09;23.83;;;10.27;;
23119;SDS011;11729;50.836;4.330;2024-01-30T09:05:35;15.68;;;10.27;;
23119;SDS011;11729;50.836;4.330;2024-01-30T09:08:01;15.05;;;10.30;;
23119;SDS011;11729;50.836;4.330;2024-01-30T09:10:26;14.07;;;10.27;;
23119;SDS011;11729;50.836;4.330;2024-01-30T09:12:52;15.60;;;10.77;;
23119;SDS011;11729;50.836;4.330;2024-01-30T09:15:18;17.50;;;11.02;;
23119;SDS011;11729;50.836;4.330;2024-01-30T09:17:44;17.15;;;10.27;;
23119;SDS011;11729;50.836;4.330;2024-01-30T09:20:11;17.73;;;11.07;;
23119;SDS011;11729;50.836;4.330;2024-01-30T09:22:36;16.45;;;10.77;;
23119;SDS011;11729;50.836;4.330;2024-01-30T09:25:02;17.20;;;10.18;;
23119;SDS011;11729;50.836;4.330;2024-01-30T09:27:28;21.70;;;10.70;;
23119;SDS011;11729;50.836;4.330;2024-01-30T09:29:53;20.92;;;10.85;;
23119;SDS011;11729;50.836;4.330;2024-01-30T09:32:19;19.80;;;11.57;;
23119;SDS011;11729;50.836;4.330;2024-01-30T09:34:46;20.00;;;11.00;;
23119;SDS011;11729;50.836;4.330;2024-01-30T09:37:11;20.75;;;11.07;;
23119;SDS011;11729;50.836;4.330;2024-01-30T09:39:41;21.55;;;11.57;;
23119;SDS011;11729;50.836;4.330;2024-01-30T09:42:11;18.90;;;12.48;;
23119;SDS011;11729;50.836;4.330;2024-01-30T09:44:50;20.13;;;12.77;;
23119;SDS011;11729;50.836;4.330;2024-01-30T09:47:17;23.85;;;12.82;;
23119;SDS011;11729;50.836;4.330;2024-01-30T09:49:43;22.73;;;12.07;;
23119;SDS011;11729;50.836;4.330;2024-01-30T09:52:09;17.95;;;11.48;;
23119;SDS011;11729;50.836;4.330;2024-01-30T09:54:38;27.30;;;12.75;;
23119;SDS011;11729;50.836;4.330;2024-01-30T09:57:04;23.20;;;13.18;;
23119;SDS011;11729;50.836;4.330;2024-01-30T09:59:30;21.00;;;12.40;;
23119;SDS011;11729;50.836;4.330;2024-01-30T10:01:57;17.90;;;11.93;;
23119;SDS011;11729;50.836;4.330;2024-01-30T10:04:23;21.20;;;13.10;;
23119;SDS011;11729;50.836;4.330;2024-01-30T10:06:49;19.70;;;12.20;;
23119;SDS011;11729;50.836;4.330;2024-01-30T10:09:17;22.45;;;13.15;;
23119;SDS011;11729;50.836;4.330;2024-01-30T10:11:42;19.65;;;12.85;;
23119;SDS011;11729;50.836;4.330;2024-01-30T10:14:08;26.88;;;15.43;;
23119;SDS011;11729;50.836;4.330;2024-01-30T10:16:34;23.80;;;12.85;;
23119;SDS011;11729;50.836;4.330;2024-01-30T10:19:00;18.15;;;12.30;;
23119;SDS011;11729;50.836;4.330;2024-01-30T10:21:26;36.70;;;18.15;;
23119;SDS011;11729;50.836;4.330;2024-01-30T10:23:53;29.75;;;16.05;;
23119;SDS011;11729;50.836;4.330;2024-01-30T10:26:19;21.85;;;13.85;;
23119;SDS011;11729;50.836;4.330;2024-01-30T10:28:47;25.17;;;14.40;;
23119;SDS011;11729;50.836;4.330;2024-01-30T10:31:17;23.35;;;13.00;;
23119;SDS011;11729;50.836;4.330;2024-01-30T10:33:44;23.30;;;12.27;;
23119;SDS011;11729;50.836;4.330;2024-01-30T10:36:10;16.63;;;11.60;;
23119;SDS011;11729;50.836;4.330;2024-01-30T10:38:39;18.00;;;10.90;;
23119;SDS011;11729;50.836;4.330;2024-01-30T10:41:08;25.77;;;11.55;;
23119;SDS011;11729;50.836;4.330;2024-01-30T10:43:42;21.33;;;11.48;;
23119;SDS011;11729;50.836;4.330;2024-01-30T10:46:20;18.45;;;11.07;;
23119;SDS011;11729;50.836;4.330;2024-01-30T10:48:56;25.33;;;10.75;;
23119;SDS011;11729;50.836;4.330;2024-01-30T10:51:28;16.88;;;10.55;;
23119;SDS011;11729;50.836;4.330;2024-01-30T10:53:55;16.23;;;9.63;;
23119;SDS011;11729;50.836;4.330;2024-01-30T10:56:21;18.92;;;10.23;;
23119;SDS011;11729;50.836;4.330;2024-01-30T10:58:49;16.13;;;9.32;;
23119;SDS011;11729;50.836;4.330;2024-01-30T11:01:17;14.90;;;9.48;;
23119;SDS011;11729;50.836;4.330;2024-01-30T11:03:52;18.17;;;9.27;;
23119;SDS011;11729;50.836;4.330;2024-01-30T11:06:24;14.35;;;9.30;;
23119;SDS011;11729;50.836;4.330;2024-01-30T11:09:02;14.35;;;9.07;;
23119;SDS011;11729;50.836;4.330;2024-01-30T11:11:29;15.45;;;9.07;;
23119;SDS011;11729;50.836;4.330;2024-01-30T11:13:54;18.10;;;9.38;;
23119;SDS011;11729;50.836;4.330;2024-01-30T11:16:20;12.00;;;8.27;;
23119;SDS011;11729;50.836;4.330;2024-01-30T11:18:49;14.38;;;8.15;;
23119;SDS011;11729;50.836;4.330;2024-01-30T11:21:16;13.80;;;7.18;;
23119;SDS011;11729;50.836;4.330;2024-01-30T11:23:42;9.73;;;6.75;;
23119;SDS011;11729;50.836;4.330;2024-01-30T11:26:12;7.85;;;6.32;;
23119;SDS011;11729;50.836;4.330;2024-01-30T11:28:38;9.65;;;6.28;;
23119;SDS011;11729;50.836;4.330;2024-01-30T11:31:06;13.32;;;6.00;;
23119;SDS011;11729;50.836;4.330;2024-01-30T11:33:33;9.02;;;5.43;;
23119;SDS011;11729;50.836;4.330;2024-01-30T11:36:00;6.60;;;5.28;;
23119;SDS011;11729;50.836;4.330;2024-01-30T11:38:27;6.05;;;5.40;;
23119;SDS011;11729;50.836;4.330;2024-01-30T11:40:57;5.53;;;4.72;;
23119;SDS011;11729;50.836;4.330;2024-01-30T11:43:24;5.10;;;4.65;;
23119;SDS011;11729;50.836;4.330;2024-01-30T11:45:50;8.35;;;4.88;;
23119;SDS011;11729;50.836;4.330;2024-01-30T11:48:16;5.80;;;4.43;;
23119;SDS011;11729;50.836;4.330;2024-01-30T11:50:43;9.93;;;5.20;;
23119;SDS011;11729;50.836;4.330;2024-01-30T11:53:13;8.85;;;5.13;;
23119;SDS011;11729;50.836;4.330;2024-01-30T11:55:39;5.97;;;4.70;;
23119;SDS011;11729;50.836;4.330;2024-01-30T11:58:04;7.57;;;4.53;;
23119;SDS011;11729;50.836;4.330;2024-01-30T12:00:30;7.32;;;4.50;;
23119;SDS011;11729;50.836;4.330;2024-01-30T12:02:58;5.65;;;4.40;;
23119;SDS011;11729;50.836;4.330;2024-01-30T12:05:25;9.38;;;4.55;;
23119;SDS011;11729;50.836;4.330;2024-01-30T12:07:51;7.97;;;4.80;;
23119;SDS011;11729;50.836;4.330;2024-01-30T12:10:17;11.88;;;4.90;;
23119;SDS011;11729;50.836;4.330;2024-01-30T12:12:47;8.38;;;4.60;;
23119;SDS011;11729;50.836;4.330;2024-01-30T12:15:14;9.18;;;4.85;;
23119;SDS011;11729;50.836;4.330;2024-01-30T12:17:40;9.52;;;4.55;;
23119;SDS011;11729;50.836;4.330;2024-01-30T12:22:39;4.85;;;4.20;;
23119;SDS011;11729;50.836;4.330;2024-01-30T12:25:10;8.05;;;4.53;;
23119;SDS011;11729;50.836;4.330;2024-01-30T12:27:41;4.60;;;4.20;;
23119;SDS011;11729;50.836;4.330;2024-01-30T12:30:09;9.05;;;4.57;;
23119;SDS011;11729;50.836;4.330;2024-01-30T12:32:36;6.30;;;4.60;;
23119;SDS011;11729;50.836;4.330;2024-01-30T12:35:12;5.93;;;4.40;;
23119;SDS011;11729;50.836;4.330;2024-01-30T12:37:39;7.68;;;4.30;;
23119;SDS011;11729;50.836;4.330;2024-01-30T12:40:06;6.18;;;4.80;;
23119;SDS011;11729;50.836;4.330;2024-01-30T12:42:33;4.65;;;4.25;;
23119;SDS011;11729;50.836;4.330;2024-01-30T12:44:59;9.27;;;4.82;;
23119;SDS011;11729;50.836;4.330;2024-01-30T12:47:25;4.95;;;4.15;;
23119;SDS011;11729;50.836;4.330;2024-01-30T12:49:51;6.75;;;4.75;;
23119;SDS011;11729;50.836;4.330;2024-01-30T12:52:20;5.00;;;4.50;;
23119;SDS011;11729;50.836;4.330;2024-01-30T12:54:46;7.38;;;4.20;;
23119;SDS011;11729;50.836;4.330;2024-01-30T12:57:12;7.03;;;4.40;;
23119;SDS011;11729;50.836;4.330;2024-01-30T12:59:38;4.93;;;4.40;;
23119;SDS011;11729;50.836;4.330;2024-01-30T13:02:04;4.63;;;4.20;;
23119;SDS011;11729;50.836;4.330;2024-01-30T13:04:34;6.32;;;4.40;;
23119;SDS011;11729;50.836;4.330;2024-01-30T13:07:00;6.30;;;4.50;;
23119;SDS011;11729;50.836;4.330;2024-01-30T13:09:26;6.45;;;4.20;;
23119;SDS011;11729;50.836;4.330;2024-01-30T13:11:53;5.75;;;3.92;;
23119;SDS011;11729;50.836;4.330;2024-01-30T13:14:19;5.50;;;4.10;;
23119;SDS011;11729;50.836;4.330;2024-01-30T13:16:44;4.53;;;4.13;;
23119;SDS011;11729;50.836;4.330;2024-01-30T13:19:10;9.20;;;6.45;;
23119;SDS011;11729;50.836;4.330;2024-01-30T13:21:36;6.97;;;5.07;;
23119;SDS011;11729;50.836;4.330;2024-01-30T13:24:02;8.68;;;4.50;;
23119;SDS011;11729;50.836;4.330;2024-01-30T13:26:31;11.65;;;4.80;;
23119;SDS011;11729;50.836;4.330;2024-01-30T13:28:57;6.88;;;4.75;;
23119;SDS011;11729;50.836;4.330;2024-01-30T13:31:24;6.55;;;5.13;;
23119;SDS011;11729;50.836;4.330;2024-01-30T13:33:50;7.88;;;4.90;;
23119;SDS011;11729;50.836;4.330;2024-01-30T13:36:15;10.95;;;5.82;;
23119;SDS011;11729;50.836;4.330;2024-01-30T13:38:41;7.05;;;5.00;;
23119;SDS011;11729;50.836;4.330;2024-01-30T13:41:08;4.72;;;4.30;;
23119;SDS011;11729;50.836;4.330;2024-01-30T13:43:34;12.93;;;4.90;;
23119;SDS011;11729;50.836;4.330;2024-01-30T13:45:59;12.65;;;4.45;;
23119;SDS011;11729;50.836;4.330;2024-01-30T13:48:25;7.65;;;4.72;;
23119;SDS011;11729;50.836;4.330;2024-01-30T13:50:51;9.23;;;5.18;;
23119;SDS011;11729;50.836;4.330;2024-01-30T13:53:18;14.00;;;6.50;;
23119;SDS011;11729;50.836;4.330;2024-01-30T13:55:43;6.38;;;4.95;;
23119;SDS011;11729;50.836;4.330;2024-01-30T13:58:09;7.43;;;4.43;;
23119;SDS011;11729;50.836;4.330;2024-01-30T14:00:34;8.38;;;4.80;;
23119;SDS011;11729;50.836;4.330;2024-01-30T14:03:00;8.07;;;4.55;;
23119;SDS011;11729;50.836;4.330;2024-01-30T14:05:26;7.15;;;4.45;;
23119;SDS011;11729;50.836;4.330;2024-01-30T14:07:55;9.65;;;4.60;;
23119;SDS011;11729;50.836;4.330;2024-01-30T14:10:22;9.25;;;4.32;;
23119;SDS011;11729;50.836;4.330;2024-01-30T14:12:47;7.28;;;4.93;;
23119;SDS011;11729;50.836;4.330;2024-01-30T14:15:13;8.20;;;4.60;;
23119;SDS011;11729;50.836;4.330;2024-01-30T14:17:46;7.47;;;4.70;;
23119;SDS011;11729;50.836;4.330;2024-01-30T14:20:13;5.82;;;4.30;;
23119;SDS011;11729;50.836;4.330;2024-01-30T14:22:41;5.00;;;4.50;;
23119;SDS011;11729;50.836;4.330;2024-01-30T14:25:08;5.45;;;4.45;;
23119;SDS011;11729;50.836;4.330;2024-01-30T14:27:34;7.57;;;4.50;;
23119;SDS011;11729;50.836;4.330;2024-01-30T14:30:00;7.05;;;4.85;;
23119;SDS011;11729;50.836;4.330;2024-01-30T14:32:26;6.40;;;4.35;;
23119;SDS011;11729;50.836;4.330;2024-01-30T14:34:52;6.35;;;4.57;;
23119;SDS011;11729;50.836;4.330;2024-01-30T14:37:18;7.85;;;4.80;;
23119;SDS011;11729;50.836;4.330;2024-01-30T14:39:44;10.77;;;4.97;;
23119;SDS011;11729;50.836;4.330;2024-01-30T14:42:10;7.65;;;4.57;;
23119;SDS011;11729;50.836;4.330;2024-01-30T14:44:35;12.93;;;5.32;;